Time;durP1;ratioP1;P1;durP2;ratioP2;P2;SDS_P1;SDS_P2;PMS_P1;PMS_P2;Temp;Humidity;BMP_temperature;BMP_pressure;BME280_temperature;BME280_humidity;BME280_pressure;Samples;Min_cycle;Max_cycle;Signal;HPM_P1;HPM_P2
2022/04/05 00:03:22;;;;;;;26.02;3.78;;;;;;;4.49;100.00;99811.94;10203875;28;20058;-67
2022/04/05 00:08:20;;;;;;;30.20;3.42;;;;;;;4.52;100.00;99827.56;10204026;28;20037;-67
2022/04/05 00:13:17;;;;;;;20.70;3.03;;;;;;;4.48;100.00;99816.56;10211363;28;20055;-67
2022/04/05 00:18:14;;;;;;;14.18;2.20;;;;;;;4.51;100.00;99809.75;10209504;28;20045;-67
2022/04/05 00:23:10;;;;;;;19.83;2.05;;;;;;;4.56;100.00;99817.75;10213219;28;20133;-67
2022/04/05 00:28:07;;;;;;;20.85;2.13;;;;;;;4.52;100.00;99805.91;10210722;28;20045;-65
2022/04/05 00:33:03;;;;;;;21.13;3.53;;;;;;;4.52;100.00;99822.97;10200886;28;20141;-66
2022/04/05 00:38:00;;;;;;;12.63;1.60;;;;;;;4.46;100.00;99824.16;10210851;28;20061;-66
2022/04/05 00:42:58;;;;;;;21.13;3.05;;;;;;;4.38;100.00;99806.69;10207940;28;20846;-68
2022/04/05 00:47:55;;;;;;;17.45;1.95;;;;;;;4.36;100.00;99819.75;10212465;28;20619;-68
2022/04/05 00:52:52;;;;;;;12.02;1.90;;;;;;;4.33;100.00;99825.75;10218350;28;20132;-67
2022/04/05 00:57:54;;;;;;;27.42;2.40;;;;;;;4.32;100.00;99826.84;10208668;28;20065;-66
2022/04/05 01:02:54;;;;;;;15.55;1.85;;;;;;;4.32;100.00;99834.19;10210132;28;20048;-68
2022/04/05 01:07:53;;;;;;;28.63;2.28;;;;;;;4.37;100.00;99826.75;10198528;28;20133;-68
2022/04/05 01:12:50;;;;;;;17.60;1.98;;;;;;;4.39;100.00;99840.78;10209963;28;20104;-69
2022/04/05 01:17:47;;;;;;;25.48;2.20;;;;;;;4.38;100.00;99832.97;10208349;28;20049;-67
2022/04/05 01:22:53;;;;;;;12.32;1.73;;;;;;;4.36;100.00;99838.69;10209165;28;20048;-66
2022/04/05 01:27:52;;;;;;;22.02;2.42;;;;;;;4.41;100.00;99838.59;10211203;28;20542;-67
2022/04/05 01:32:49;;;;;;;22.90;1.77;;;;;;;4.39;100.00;99840.78;10216859;28;20064;-66
2022/04/05 01:37:46;;;;;;;13.90;2.83;;;;;;;4.41;100.00;99849.44;10221067;28;20111;-69
2022/04/05 01:42:42;;;;;;;15.93;1.73;;;;;;;4.38;100.00;99850.00;10210348;28;20834;-67
2022/04/05 01:47:39;;;;;;;12.90;1.90;;;;;;;4.28;100.00;99849.41;10216989;28;20689;-69
2022/04/05 01:52:36;;;;;;;16.75;1.90;;;;;;;4.22;100.00;99856.78;10212193;28;20042;-70
2022/04/05 01:57:33;;;;;;;15.02;1.40;;;;;;;4.13;100.00;99859.38;10210545;28;20164;-66
2022/04/05 02:02:30;;;;;;;11.48;1.45;;;;;;;4.15;100.00;99856.34;10214470;28;20111;-67
2022/04/05 02:07:26;;;;;;;13.00;2.03;;;;;;;4.18;100.00;99861.19;10221716;28;20117;-66
2022/04/05 02:12:22;;;;;;;10.60;1.17;;;;;;;4.17;100.00;99862.28;10219245;28;20048;-66
2022/04/05 02:17:22;;;;;;;10.82;1.08;;;;;;;4.13;100.00;99863.97;10213574;28;20075;-67
2022/04/05 02:22:18;;;;;;;16.30;1.48;;;;;;;4.21;100.00;99871.41;10211671;28;20041;-67
2022/04/05 02:27:15;;;;;;;17.85;1.50;;;;;;;4.27;100.00;99886.47;10211053;28;20463;-69
2022/04/05 02:32:11;;;;;;;14.27;1.40;;;;;;;4.24;100.00;99884.34;10209618;28;20533;-70
2022/04/05 02:37:08;;;;;;;12.15;1.60;;;;;;;4.01;100.00;99910.41;10213994;28;20076;-68
2022/04/05 02:42:05;;;;;;;15.00;1.20;;;;;;;3.91;100.00;99895.13;10214301;28;20145;-66
2022/04/05 02:47:02;;;;;;;12.27;1.30;;;;;;;3.83;100.00;99909.34;10220079;28;20454;-67
2022/04/05 02:52:00;;;;;;;10.23;1.20;;;;;;;3.67;100.00;99916.84;10213770;28;20081;-67
2022/04/05 02:56:56;;;;;;;10.20;1.67;;;;;;;3.62;100.00;99924.22;10209564;28;20586;-67
2022/04/05 03:01:53;;;;;;;10.07;2.80;;;;;;;3.60;100.00;99927.22;10215584;28;20499;-67
2022/04/05 03:06:50;;;;;;;11.18;1.63;;;;;;;3.64;100.00;99932.84;10205614;28;20112;-69
2022/04/05 03:11:47;;;;;;;7.00;1.10;;;;;;;3.58;100.00;99927.50;10212777;28;20395;-69
2022/04/05 03:16:44;;;;;;;12.10;1.30;;;;;;;3.54;100.00;99934.56;10201343;28;20046;-67
2022/04/05 03:21:41;;;;;;;18.08;2.00;;;;;;;3.55;100.00;99936.19;10200508;28;20054;-68
2022/04/05 03:26:38;;;;;;;17.00;2.10;;;;;;;3.52;100.00;99942.16;10194853;28;20046;-67
2022/04/05 03:31:35;;;;;;;11.68;1.70;;;;;;;3.49;100.00;99948.16;10205958;28;20079;-66
2022/04/05 03:36:31;;;;;;;16.50;2.20;;;;;;;3.48;100.00;99957.38;10215273;28;20058;-64
2022/04/05 03:41:29;;;;;;;11.05;1.60;;;;;;;3.47;100.00;99957.66;10217670;28;20038;-65
2022/04/05 03:46:26;;;;;;;7.60;1.58;;;;;;;3.45;100.00;99966.03;10224460;28;20065;-66
2022/04/05 03:51:22;;;;;;;16.10;1.40;;;;;;;3.46;100.00;99964.13;10199149;28;20520;-66
2022/04/05 03:56:20;;;;;;;35.00;3.85;;;;;;;3.40;100.00;99960.69;10208727;28;20129;-65
2022/04/05 04:01:18;;;;;;;12.98;1.73;;;;;;;3.42;100.00;99963.94;10200447;28;20080;-66
2022/04/05 04:06:14;;;;;;;11.68;1.40;;;;;;;3.45;100.00;99955.22;10206647;28;20533;-67
2022/04/05 04:11:11;;;;;;;15.50;2.38;;;;;;;3.46;100.00;99970.38;10206422;28;20092;-68
2022/04/05 04:16:07;;;;;;;12.55;2.58;;;;;;;3.41;100.00;99967.72;10209124;28;20077;-67
2022/04/05 04:21:04;;;;;;;15.50;1.60;;;;;;;3.39;100.00;99975.31;10206530;28;20137;-67
2022/04/05 04:26:00;;;;;;;20.85;1.95;;;;;;;3.37;100.00;99982.91;10197697;28;20115;-67
2022/04/05 04:30:57;;;;;;;18.08;1.77;;;;;;;3.34;100.00;99994.28;10223232;28;20553;-67
2022/04/05 04:35:54;;;;;;;8.25;1.55;;;;;;;3.28;100.00;99985.44;10217436;28;20038;-67
2022/04/05 04:40:50;;;;;;;16.17;1.77;;;;;;;3.30;100.00;99998.66;10222024;28;20156;-66
2022/04/05 04:45:47;;;;;;;12.32;1.52;;;;;;;3.33;100.00;100000.78;10190863;28;20046;-68
2022/04/05 04:50:43;;;;;;;12.13;1.55;;;;;;;3.23;100.00;100011.72;10195873;28;20045;-68
2022/04/05 04:55:40;;;;;;;13.07;2.45;;;;;;;3.30;100.00;100012.16;10204730;28;20233;-68
2022/04/05 05:00:57;;;;;;;11.85;1.42;;;;;;;3.35;100.00;100022.91;10196574;28;20057;-67
2022/04/05 05:05:54;;;;;;;14.60;1.65;;;;;;;3.42;100.00;100028.00;10204315;28;20049;-68
2022/04/05 05:10:50;;;;;;;11.50;1.52;;;;;;;3.41;100.00;100037.97;10209619;28;20052;-68
2022/04/05 05:15:47;;;;;;;14.07;1.88;;;;;;;3.55;100.00;100038.91;10207427;28;20133;-67
2022/04/05 05:20:43;;;;;;;12.45;1.58;;;;;;;3.64;100.00;100040.97;10201914;28;20076;-68
2022/04/05 05:25:40;;;;;;;15.40;1.45;;;;;;;3.66;100.00;100060.41;10199036;28;20567;-68
2022/04/05 05:30:37;;;;;;;9.30;1.35;;;;;;;3.69;100.00;100066.06;10205126;28;20049;-68
2022/04/05 05:35:33;;;;;;;16.23;1.80;;;;;;;3.55;100.00;100062.41;10196135;28;20422;-67
2022/04/05 05:40:30;;;;;;;12.50;1.80;;;;;;;3.49;100.00;100069.78;10196836;28;20444;-67
2022/04/05 05:45:27;;;;;;;7.45;1.13;;;;;;;3.45;100.00;100070.66;10215076;28;20073;-67
2022/04/05 05:50:26;;;;;;;11.50;1.60;;;;;;;3.42;100.00;100088.25;10231469;28;20103;-67
2022/04/05 05:55:23;;;;;;;7.38;1.15;;;;;;;3.40;100.00;100089.63;10230503;28;20507;-67
2022/04/05 06:00:21;;;;;;;10.95;1.88;;;;;;;3.44;100.00;100088.75;10229491;28;20050;-68
2022/04/05 06:05:18;;;;;;;12.30;1.42;;;;;;;3.50;100.00;100095.72;10227569;28;20319;-68
2022/04/05 06:10:15;;;;;;;18.10;2.20;;;;;;;3.58;100.00;100097.81;10227846;28;20609;-67
2022/04/05 06:15:14;;;;;;;21.05;2.05;;;;;;;3.63;100.00;100115.06;10222931;28;20539;-69
2022/04/05 06:20:14;;;;;;;12.60;2.10;;;;;;;3.66;100.00;100114.50;10229549;28;20053;-69
2022/04/05 06:25:12;;;;;;;17.50;1.92;;;;;;;3.75;100.00;100118.97;10223530;28;20084;-67
2022/04/05 06:30:11;;;;;;;17.10;3.33;;;;;;;3.87;100.00;100124.00;10228809;28;20396;-68
2022/04/05 06:35:10;;;;;;;11.05;1.65;;;;;;;4.04;100.00;100120.84;10213035;28;20091;-67
2022/04/05 06:40:07;;;;;;;12.00;1.98;;;;;;;4.24;100.00;100130.59;10213816;28;20120;-68
2022/04/05 06:45:04;;;;;;;12.45;1.90;;;;;;;4.40;100.00;100134.72;10221032;28;20629;-67
2022/04/05 06:50:03;;;;;;;21.00;2.97;;;;;;;4.48;100.00;100152.22;10223043;28;20446;-68
2022/04/05 06:54:59;;;;;;;13.80;2.53;;;;;;;4.67;100.00;100149.53;10229095;28;20064;-68
2022/04/05 06:59:56;;;;;;;11.77;1.25;;;;;;;4.67;100.00;100154.97;10225858;28;20073;-68
2022/04/05 07:04:52;;;;;;;11.43;2.33;;;;;;;4.45;100.00;100157.41;10217826;28;20289;-69
2022/04/05 07:09:49;;;;;;;13.68;2.25;;;;;;;4.78;100.00;100159.13;10226960;28;20033;-68
2022/04/05 07:14:46;;;;;;;10.60;1.42;;;;;;;4.71;100.00;100161.41;10225798;28;20073;-68
2022/04/05 07:19:42;;;;;;;12.85;1.23;;;;;;;4.71;100.00;100161.41;10222374;28;20057;-68
2022/04/05 07:24:38;;;;;;;12.80;1.48;;;;;;;4.74;100.00;100160.81;10225746;28;20072;-68
2022/04/05 07:29:35;;;;;;;10.10;1.58;;;;;;;4.68;100.00;100161.97;10213390;28;20505;-68
2022/04/05 07:34:32;;;;;;;7.55;1.17;;;;;;;4.79;100.00;100163.44;10223718;28;20099;-68
2022/04/05 07:39:29;;;;;;;9.25;1.17;;;;;;;4.84;100.00;100171.50;10220641;28;20505;-68
2022/04/05 07:44:25;;;;;;;12.05;2.58;;;;;;;4.80;100.00;100159.66;10222259;28;20045;-69
2022/04/05 07:49:22;;;;;;;12.18;1.27;;;;;;;4.88;100.00;100165.50;10227082;28;20041;-68
2022/04/05 07:54:18;;;;;;;12.48;1.05;;;;;;;5.04;100.00;100169.59;10226432;28;20057;-68
2022/04/05 07:59:15;;;;;;;12.48;1.85;;;;;;;5.16;100.00;100171.84;10222470;28;20164;-68
2022/04/05 08:04:11;;;;;;;9.80;1.10;;;;;;;5.23;100.00;100162.25;10223492;28;20057;-69
2022/04/05 08:09:08;;;;;;;7.45;1.05;;;;;;;5.42;100.00;100158.69;10224637;28;20129;-69
2022/04/05 08:14:05;;;;;;;16.70;3.47;;;;;;;5.56;100.00;100154.09;10226626;28;20077;-68
2022/04/05 08:19:01;;;;;;;11.70;1.65;;;;;;;5.34;100.00;100157.47;10222135;28;20119;-68
2022/04/05 08:23:58;;;;;;;8.77;1.52;;;;;;;5.40;100.00;100171.75;10223965;28;20111;-69
2022/04/05 08:28:55;;;;;;;18.63;4.82;;;;;;;5.46;100.00;100170.56;10224528;28;20119;-68
2022/04/05 08:33:53;;;;;;;6.22;0.98;;;;;;;5.46;100.00;100167.84;10224877;28;20450;-69
2022/04/05 08:38:49;;;;;;;6.82;1.35;;;;;;;5.23;100.00;100175.78;10227089;28;20084;-68
2022/04/05 08:43:49;;;;;;;9.73;1.00;;;;;;;5.38;100.00;100163.09;10227021;28;20794;-68
2022/04/05 08:48:47;;;;;;;18.38;2.60;;;;;;;5.46;100.00;100170.56;10224689;28;20045;-68
2022/04/05 08:53:45;;;;;;;11.23;2.15;;;;;;;5.55;100.00;100185.06;10229452;28;20050;-69
2022/04/05 08:58:42;;;;;;;13.27;1.35;;;;;;;5.19;100.00;100215.44;10223728;28;20041;-69
2022/04/05 09:03:38;;;;;;;7.78;0.95;;;;;;;5.15;100.00;100209.00;10229566;28;20126;-69
2022/04/05 09:08:35;;;;;;;4.10;0.80;;;;;;;5.17;100.00;100200.56;10220923;28;20096;-69
2022/04/05 09:13:32;;;;;;;6.20;0.68;;;;;;;5.53;100.00;100197.31;10203275;28;20140;-69
2022/04/05 09:18:34;;;;;;;5.03;0.98;;;;;;;5.63;100.00;100192.50;10229647;28;20614;-69
2022/04/05 09:23:41;;;;;;;8.15;0.98;;;;;;;5.97;100.00;100180.53;10225157;28;20450;-69
2022/04/05 09:28:46;;;;;;;5.38;0.80;;;;;;;6.14;100.00;100176.44;10229028;28;20073;-71
2022/04/05 09:34:06;;;;;;;9.02;0.82;;;;;;;5.96;100.00;100184.34;10231018;28;20088;-71
2022/04/05 09:39:17;;;;;;;6.07;0.80;;;;;;;5.91;100.00;100197.97;10228261;28;20328;-71
2022/04/05 09:44:24;;;;;;;8.07;1.10;;;;;;;5.56;100.00;100200.22;10219288;28;20558;-71
2022/04/05 09:49:31;;;;;;;4.93;0.70;;;;;;;5.41;100.00;100197.75;10229353;28;20495;-70
2022/04/05 09:54:29;;;;;;;7.30;0.88;;;;;;;5.58;100.00;100194.50;10230058;28;20045;-70
2022/04/05 09:59:38;;;;;;;4.97;1.27;;;;;;;5.44;100.00;100191.75;10230489;28;20411;-70
2022/04/05 10:04:35;;;;;;;3.42;0.68;;;;;;;5.46;100.00;100192.25;10231310;28;20111;-70
2022/04/05 10:09:32;;;;;;;9.27;1.25;;;;;;;5.83;100.00;100190.53;10210527;28;20096;-71
2022/04/05 10:14:29;;;;;;;7.68;0.90;;;;;;;6.03;100.00;100179.31;10194920;28;20104;-71
2022/04/05 10:19:26;;;;;;;5.10;1.05;;;;;;;5.87;100.00;100180.69;10198240;28;20565;-70
2022/04/05 10:24:24;;;;;;;5.53;0.95;;;;;;;5.95;100.00;100176.53;10205945;28;20046;-71
2022/04/05 10:29:22;;;;;;;6.53;1.27;;;;;;;6.34;100.00;100167.88;10198029;28;20049;-71
2022/04/05 10:34:25;;;;;;;9.02;1.38;;;;;;;6.36;100.00;100171.09;10207760;28;20054;-69
2022/04/05 10:39:25;;;;;;;10.65;1.20;;;;;;;6.66;100.00;100168.84;10221239;28;20091;-69
2022/04/05 10:44:23;;;;;;;10.27;2.05;;;;;;;6.75;100.00;100175.16;10221086;28;20441;-70
2022/04/05 10:49:34;;;;;;;6.93;0.85;;;;;;;6.59;100.00;100173.88;10224503;28;20489;-69
2022/04/05 10:54:37;;;;;;;5.47;0.85;;;;;;;6.52;100.00;100172.41;10225731;28;20084;-70
2022/04/05 10:59:48;;;;;;;8.40;1.38;;;;;;;6.37;100.00;100178.13;10226197;28;20495;-69
2022/04/05 11:04:45;;;;;;;6.03;1.00;;;;;;;5.86;100.00;100184.50;10208551;28;20403;-70
2022/04/05 11:09:52;;;;;;;3.00;0.60;;;;;;;5.94;100.00;100197.44;10227753;28;20103;-69
2022/04/05 11:14:56;;;;;;;10.68;1.13;;;;;;;5.89;100.00;100194.75;10227811;28;20080;-70
2022/04/05 11:19:57;;;;;;;7.93;0.85;;;;;;;5.66;100.00;100196.50;10228931;28;20072;-69
2022/04/05 11:25:09;;;;;;;6.15;1.05;;;;;;;5.86;100.00;100189.94;10228978;28;20084;-70
2022/04/05 11:30:20;;;;;;;11.00;1.02;;;;;;;6.15;100.00;100194.31;10214134;28;20090;-69
2022/04/05 11:35:27;;;;;;;6.78;2.13;;;;;;;6.18;100.00;100193.72;10210994;28;20595;-69
2022/04/05 11:40:23;;;;;;;6.85;1.20;;;;;;;6.00;100.00;100190.78;10216355;28;20129;-70
2022/04/05 11:45:21;;;;;;;5.55;0.80;;;;;;;6.03;100.00;100201.03;10224312;28;20085;-70
2022/04/05 11:50:19;;;;;;;11.13;2.65;;;;;;;6.05;100.00;100198.81;10213582;28;20852;-69
2022/04/05 12:00:33;;;;;;;9.75;2.20;;;;;;;6.04;100.00;100201.88;10194767;28;20129;-70
2022/04/05 12:05:42;;;;;;;3.17;0.70;;;;;;;6.16;100.00;100187.78;10207449;28;20385;-70
2022/04/05 12:10:41;;;;;;;8.20;2.38;;;;;;;6.22;100.00;100187.41;10198462;28;20073;-70
2022/04/05 12:15:38;;;;;;;8.55;0.88;;;;;;;6.44;100.00;100175.81;10206124;28;20103;-70
2022/04/05 12:20:34;;;;;;;6.60;0.90;;;;;;;6.67;100.00;100175.88;10218952;28;20057;-71
2022/04/05 12:25:31;;;;;;;7.22;0.85;;;;;;;6.67;100.00;100175.88;10221333;28;20136;-71
2022/04/05 12:30:29;;;;;;;5.78;0.63;;;;;;;6.50;100.00;100181.97;10213861;28;20129;-71
2022/04/05 12:35:25;;;;;;;4.47;0.63;;;;;;;6.64;100.00;100179.22;10214616;28;20046;-70
2022/04/05 12:40:24;;;;;;;3.85;0.98;;;;;;;6.42;100.00;100174.50;10210316;28;20217;-70
2022/04/05 12:45:29;;;;;;;6.47;0.75;;;;;;;6.55;100.00;100172.91;10219752;28;20528;-70
2022/04/05 12:50:25;;;;;;;5.35;0.90;;;;;;;6.75;100.00;100172.44;10211219;28;20076;-70
2022/04/05 12:55:22;;;;;;;5.00;0.52;;;;;;;6.77;100.00;100170.22;10212952;28;20565;-70
2022/04/05 13:00:22;;;;;;;6.75;0.73;;;;;;;6.63;100.00;100174.88;10212992;28;20530;-71
2022/04/05 13:10:41;;;;;;;3.22;0.88;;;;;;;6.31;100.00;100173.91;10230977;28;20081;-71
2022/04/05 13:15:37;;;;;;;3.22;0.70;;;;;;;6.15;100.00;100169.88;10227357;28;20050;-71
2022/04/05 13:20:34;;;;;;;6.30;0.90;;;;;;;6.23;100.00;100172.72;10222654;28;20060;-71
2022/04/05 13:25:40;;;;;;;3.55;1.00;;;;;;;6.26;100.00;100163.16;10222013;28;20092;-71
2022/04/05 13:30:44;;;;;;;5.10;1.05;;;;;;;6.41;100.00;100165.56;10219001;28;20080;-71
2022/04/05 13:35:41;;;;;;;5.47;1.05;;;;;;;6.59;100.00;100163.00;10229284;28;20049;-71
2022/04/05 13:40:37;;;;;;;6.13;0.98;;;;;;;6.44;100.00;100159.53;10228133;28;20121;-71
2022/04/05 13:45:34;;;;;;;3.60;0.73;;;;;;;6.35;100.00;100155.91;10232177;28;20053;-71
2022/04/05 13:50:30;;;;;;;4.35;0.85;;;;;;;6.09;100.00;100161.84;10227168;28;20038;-71
2022/04/05 13:55:27;;;;;;;6.18;1.02;;;;;;;5.98;100.00;100157.72;10232500;28;20116;-71
2022/04/05 14:00:23;;;;;;;2.45;0.50;;;;;;;6.15;100.00;100154.44;10228394;28;20041;-69
2022/04/05 14:05:20;;;;;;;4.20;0.90;;;;;;;5.99;100.00;100145.78;10230686;28;20132;-69
2022/04/05 14:10:16;;;;;;;3.80;0.90;;;;;;;5.96;100.00;100146.34;10224087;28;20084;-70
2022/04/05 14:15:33;;;;;;;5.63;0.85;;;;;;;5.96;100.00;100132.78;10228904;28;20048;-70
2022/04/05 14:20:29;;;;;;;3.95;0.47;;;;;;;5.98;100.00;100116.22;10216130;28;20050;-70
2022/04/05 14:25:26;;;;;;;6.57;1.02;;;;;;;6.03;100.00;100122.31;10212681;28;20057;-70
2022/04/05 14:30:24;;;;;;;7.20;1.08;;;;;;;6.07;100.00;100109.78;10210545;28;20048;-70
2022/04/05 14:35:21;;;;;;;2.85;0.60;;;;;;;6.02;100.00;100107.16;10206587;28;20624;-70
2022/04/05 14:40:23;;;;;;;4.10;1.10;;;;;;;6.14;100.00;100108.56;10215990;28;20576;-70
2022/04/05 14:45:20;;;;;;;3.60;1.02;;;;;;;6.16;100.00;100096.31;10209698;28;20053;-72
2022/04/05 14:50:21;;;;;;;5.05;1.48;;;;;;;6.23;100.00;100101.31;10203992;28;20577;-71
2022/04/05 14:55:37;;;;;;;5.20;1.00;;;;;;;6.30;100.00;100096.28;10224579;28;20132;-69
2022/04/05 15:00:34;;;;;;;2.35;0.65;;;;;;;6.14;100.00;100092.28;10227429;28;20112;-71
2022/04/05 15:05:31;;;;;;;3.47;0.75;;;;;;;5.95;100.00;100095.91;10224226;28;20052;-69
2022/04/05 15:10:29;;;;;;;4.22;0.85;;;;;;;6.16;100.00;100100.94;10207934;28;20050;-71
2022/04/05 15:15:26;;;;;;;5.30;1.10;;;;;;;6.30;100.00;100096.28;10209085;28;20053;-70
2022/04/05 15:20:23;;;;;;;2.20;0.63;;;;;;;6.22;100.00;100088.84;10209399;28;20447;-69
2022/04/05 15:25:19;;;;;;;5.63;0.95;;;;;;;6.23;100.00;100079.59;10213876;28;20522;-71
2022/04/05 15:30:16;;;;;;;4.32;1.00;;;;;;;6.27;100.00;100083.31;10202140;28;20132;-69
2022/04/05 15:35:14;;;;;;;6.53;2.25;;;;;;;6.26;100.00;100079.00;10194137;28;20049;-69
2022/04/05 15:40:13;;;;;;;5.15;2.15;;;;;;;6.27;100.00;100077.91;10195539;28;20100;-69
2022/04/05 15:45:19;;;;;;;3.58;1.20;;;;;;;6.21;100.00;100077.19;10197273;28;20046;-69
2022/04/05 15:50:17;;;;;;;3.20;0.80;;;;;;;6.14;100.00;100082.22;10208037;28;20424;-70
2022/04/05 15:55:13;;;;;;;4.22;1.30;;;;;;;6.06;100.00;100070.19;10226729;28;20084;-70
2022/04/05 16:00:15;;;;;;;6.53;1.40;;;;;;;6.13;100.00;100058.09;10220869;28;20112;-71
2022/04/05 16:05:12;;;;;;;3.78;1.20;;;;;;;6.00;100.00;100071.38;10224153;28;21147;-71
2022/04/05 16:10:09;;;;;;;5.47;1.50;;;;;;;6.08;100.00;100059.81;10223592;28;20103;-70
2022/04/05 16:15:07;;;;;;;6.13;1.33;;;;;;;6.08;100.00;100057.13;10219024;28;20049;-70
2022/04/05 16:20:05;;;;;;;2.45;0.80;;;;;;;5.97;100.00;100060.34;10197397;28;20054;-70
2022/04/05 16:25:02;;;;;;;6.65;1.92;;;;;;;6.20;100.00;100058.50;10194470;28;20115;-71
2022/04/05 16:29:59;;;;;;;7.38;3.33;;;;;;;6.14;100.00;100038.00;10204887;28;20506;-71
2022/04/05 16:34:55;;;;;;;6.18;2.30;;;;;;;6.14;100.00;100035.28;10206919;28;20041;-70
2022/04/05 16:39:52;;;;;;;8.50;3.17;;;;;;;6.00;100.00;100024.44;10199278;28;20053;-70
2022/04/05 16:44:50;;;;;;;5.78;2.15;;;;;;;6.06;100.00;100026.75;10206106;28;20080;-70
2022/04/05 16:49:46;;;;;;;6.10;1.45;;;;;;;6.11;100.00;100021.22;10206452;28;20519;-70
2022/04/05 16:54:43;;;;;;;4.95;1.30;;;;;;;6.04;100.00;100020.81;10205371;28;20562;-70
2022/04/05 16:59:40;;;;;;;5.05;1.63;;;;;;;6.06;100.00;100024.03;10202879;28;20053;-70
2022/04/05 17:04:37;;;;;;;7.05;1.60;;;;;;;5.99;100.00;100020.94;10218374;28;20680;-70
2022/04/05 17:09:34;;;;;;;3.30;1.00;;;;;;;6.01;100.00;100017.91;10190537;28;20054;-70
2022/04/05 17:14:31;;;;;;;3.97;1.33;;;;;;;6.07;100.00;100017.50;10192967;28;20514;-70
2022/04/05 17:19:27;;;;;;;3.78;1.35;;;;;;;6.06;100.00;100017.81;10204470;28;20759;-70
2022/04/05 17:24:24;;;;;;;5.95;1.88;;;;;;;5.96;100.00;100005.25;10205004;28;20034;-70
2022/04/05 17:29:21;;;;;;;8.18;3.72;;;;;;;5.97;100.00;100011.50;10214246;28;20657;-70
2022/04/05 17:34:17;;;;;;;5.93;2.35;;;;;;;6.01;100.00;100001.63;10225990;28;20042;-69
2022/04/05 17:39:14;;;;;;;6.75;2.25;;;;;;;5.93;100.00;99994.97;10231528;28;20575;-70
2022/04/05 17:44:10;;;;;;;7.95;3.42;;;;;;;5.92;100.00;99982.53;10222034;28;20072;-70
2022/04/05 17:49:13;;;;;;;5.97;2.58;;;;;;;5.89;100.00;99993.97;10221715;28;20507;-70
2022/04/05 17:54:09;;;;;;;11.63;4.80;;;;;;;5.94;100.00;99996.63;10209698;28;20120;-70
2022/04/05 17:59:07;;;;;;;5.78;2.00;;;;;;;5.98;100.00;100003.03;10210556;28;20163;-70
2022/04/05 18:04:05;;;;;;;4.53;1.67;;;;;;;6.02;100.00;99998.63;10220238;28;20049;-70
2022/04/05 18:09:02;;;;;;;8.57;4.07;;;;;;;5.97;100.00;100014.22;10229183;28;20142;-70
2022/04/05 18:14:00;;;;;;;7.35;2.50;;;;;;;6.01;100.00;100018.72;10210898;28;20104;-70
2022/04/05 18:18:57;;;;;;;5.18;2.50;;;;;;;5.94;100.00;100031.91;10226380;28;20087;-69
2022/04/05 18:23:54;;;;;;;4.78;2.17;;;;;;;5.83;100.00;100028.56;10222552;28;20056;-70
2022/04/05 18:28:50;;;;;;;4.13;1.52;;;;;;;5.81;100.00;100035.41;10230973;28;20049;-70
2022/04/05 18:33:47;;;;;;;6.55;3.30;;;;;;;5.84;100.00;100029.34;10224023;28;20128;-69
2022/04/05 18:38:46;;;;;;;17.73;7.22;;;;;;;5.85;100.00;100030.97;10222007;28;20046;-70
2022/04/05 18:43:43;;;;;;;9.73;5.03;;;;;;;5.82;100.00;100037.78;10222516;28;20128;-69
2022/04/05 18:48:39;;;;;;;9.90;5.70;;;;;;;5.76;100.00;100036.31;10227317;28;20068;-69
2022/04/05 18:53:36;;;;;;;10.32;4.93;;;;;;;5.90;100.00;100028.16;10229113;28;20088;-70
2022/04/05 18:58:33;;;;;;;6.22;3.55;;;;;;;5.91;100.00;100029.75;10217189;28;20045;-70
2022/04/05 19:03:29;;;;;;;7.30;4.47;;;;;;;5.92;100.00;100047.66;10221552;28;20048;-70
2022/04/05 19:08:26;;;;;;;7.57;5.32;;;;;;;5.91;100.00;100035.97;10220948;28;20052;-70
2022/04/05 19:13:28;;;;;;;10.40;6.28;;;;;;;5.96;100.00;100037.81;10195738;28;20099;-70
2022/04/05 19:18:26;;;;;;;8.90;4.15;;;;;;;5.87;100.00;100040.44;10191063;28;20095;-70
2022/04/05 19:23:23;;;;;;;9.00;5.20;;;;;;;5.87;100.00;100026.84;10202836;28;20396;-71
2022/04/05 19:28:21;;;;;;;6.60;4.63;;;;;;;5.90;100.00;100037.09;10187407;28;20056;-66
2022/04/05 19:33:18;;;;;;;8.70;4.05;;;;;;;5.82;100.00;100043.22;10203683;28;20121;-65
2022/04/05 19:38:15;;;;;;;9.68;5.75;;;;;;;5.83;100.00;100036.69;10218690;28;20057;-64
2022/04/05 19:43:11;;;;;;;8.13;5.18;;;;;;;5.83;100.00;100033.19;10207629;28;20512;-64
2022/04/05 19:48:08;;;;;;;7.55;4.20;;;;;;;5.84;100.00;100035.59;10206969;28;20080;-64
2022/04/05 19:53:07;;;;;;;7.53;5.20;;;;;;;5.89;100.00;100037.38;10201931;28;20764;-63
2022/04/05 19:58:04;;;;;;;10.30;6.55;;;;;;;5.88;100.00;100036.59;10197395;28;20045;-64
2022/04/05 20:03:01;;;;;;;10.43;5.97;;;;;;;5.91;100.00;100035.19;10201518;28;20865;-64
2022/04/05 20:07:58;;;;;;;9.00;5.60;;;;;;;5.91;100.00;100024.31;10207216;28;20088;-64
2022/04/05 20:12:54;;;;;;;8.40;5.78;;;;;;;5.95;100.00;100019.13;10208151;28;20096;-64
2022/04/05 20:23:06;;;;;;;8.38;5.25;;;;;;;5.91;100.00;100008.84;10208487;28;20766;-64
2022/04/05 20:28:04;;;;;;;8.23;5.47;;;;;;;5.96;100.00;100010.69;10205612;28;20042;-64
2022/04/05 20:33:00;;;;;;;7.57;5.22;;;;;;;5.92;100.00;100004.25;10202485;28;20139;-64
2022/04/05 20:37:57;;;;;;;8.77;5.88;;;;;;;5.93;100.00;100007.75;10208349;28;20052;-64
2022/04/05 20:42:54;;;;;;;10.20;6.30;;;;;;;5.98;100.00;100003.03;10219104;28;20554;-63
2022/04/05 20:47:51;;;;;;;11.20;7.45;;;;;;;6.03;100.00;99993.97;10214688;28;20104;-63
2022/04/05 20:52:47;;;;;;;10.07;6.70;;;;;;;6.04;100.00;99990.97;10220027;28;20457;-63
2022/04/05 20:57:44;;;;;;;11.48;7.22;;;;;;;6.08;100.00;99985.72;10209729;28;20527;-64
2022/04/05 21:02:40;;;;;;;11.18;7.32;;;;;;;6.09;100.00;99977.28;10219922;28;20128;-64
2022/04/05 21:07:37;;;;;;;10.85;7.55;;;;;;;6.08;100.00;99969.44;10210951;28;20054;-64
2022/04/05 21:12:34;;;;;;;10.45;7.80;;;;;;;6.05;100.00;99970.84;10219899;28;20084;-64
2022/04/05 21:17:30;;;;;;;15.40;9.35;;;;;;;6.07;100.00;99957.78;10221781;28;20056;-64
2022/04/05 21:22:27;;;;;;;16.67;10.85;;;;;;;6.13;100.00;99949.53;10220015;28;20729;-62
2022/04/05 21:27:25;;;;;;;13.07;9.82;;;;;;;6.16;100.00;99943.50;10214624;28;20084;-62
2022/04/05 21:32:23;;;;;;;20.30;13.20;;;;;;;6.18;100.00;99933.16;10213253;28;20263;-65
2022/04/05 21:37:20;;;;;;;20.70;13.57;;;;;;;6.20;100.00;99933.63;10208967;28;20049;-65
2022/04/05 21:42:18;;;;;;;23.27;16.42;;;;;;;6.25;100.00;99917.22;10217267;28;20495;-64
2022/04/05 21:47:15;;;;;;;19.02;13.30;;;;;;;6.19;100.00;99915.72;10213272;28;20049;-65
2022/04/05 21:52:13;;;;;;;20.52;13.73;;;;;;;6.22;100.00;99915.09;10211636;28;20184;-70
2022/04/05 21:57:10;;;;;;;21.73;15.57;;;;;;;6.18;100.00;99911.44;10213402;28;20056;-71
2022/04/05 22:02:07;;;;;;;21.05;14.25;;;;;;;6.16;100.00;99917.16;10210637;28;20104;-70
2022/04/05 22:07:04;;;;;;;23.05;15.88;;;;;;;6.13;100.00;99911.53;10212019;28;20136;-70
2022/04/05 22:12:01;;;;;;;20.65;13.80;;;;;;;6.13;100.00;99922.38;10213430;28;20575;-70
2022/04/05 22:16:57;;;;;;;18.98;13.32;;;;;;;6.12;100.00;99910.72;10216504;28;20087;-70
2022/04/05 22:21:55;;;;;;;18.63;13.20;;;;;;;6.01;100.00;99904.75;10212236;28;20501;-69
2022/04/05 22:26:52;;;;;;;15.75;12.13;;;;;;;5.99;100.00;99887.97;10214461;28;20107;-69
2022/04/05 22:31:48;;;;;;;19.88;12.18;;;;;;;5.93;100.00;99886.44;10209693;28;20392;-70
2022/04/05 22:36:45;;;;;;;16.95;13.40;;;;;;;6.00;100.00;99881.44;10207633;28;20053;-69
2022/04/05 22:41:42;;;;;;;19.73;15.10;;;;;;;6.01;100.00;99872.19;10216220;28;20111;-69
2022/04/05 22:46:38;;;;;;;18.75;14.43;;;;;;;6.04;100.00;99871.56;10210508;28;20104;-68
2022/04/05 22:51:55;;;;;;;21.65;15.52;;;;;;;6.18;100.00;99876.13;10208444;28;20041;-67
2022/04/05 22:56:52;;;;;;;21.30;15.60;;;;;;;6.20;100.00;99874.72;10211326;28;20220;-67
2022/04/05 23:01:49;;;;;;;22.83;15.35;;;;;;;6.17;100.00;99880.75;10209126;28;20565;-67